createdAt,value
2022-10-31T00:02:05.165Z,93.90
2022-10-31T00:04:50.322Z,93.90
2022-10-31T00:07:36.185Z,94.00
2022-10-31T00:10:21.346Z,94.00
2022-10-31T00:13:08.086Z,94.10
2022-10-31T00:15:53.538Z,94.20
2022-10-31T00:18:38.843Z,94.30
2022-10-31T00:21:25.399Z,94.20
2022-10-31T00:24:11.858Z,94.10
2022-10-31T00:26:59.917Z,94.10
2022-10-31T00:29:47.617Z,94.10
2022-10-31T00:32:33.242Z,94.00
2022-10-31T00:35:18.619Z,94.00
2022-10-31T00:38:03.954Z,94.10
2022-10-31T00:40:49.433Z,94.10
2022-10-31T00:43:35.437Z,94.20
2022-10-31T00:46:21.017Z,94.40
2022-10-31T00:49:08.016Z,94.60
2022-10-31T00:51:53.744Z,94.60
2022-10-31T00:54:39.186Z,94.70
2022-10-31T00:57:24.749Z,94.70
2022-10-31T01:00:10.747Z,94.80
2022-10-31T01:02:56.553Z,94.90
2022-10-31T01:05:42.047Z,94.90
2022-10-31T01:08:41.206Z,95.00
2022-10-31T01:11:26.998Z,95.10
2022-10-31T01:14:12.393Z,95.10
2022-10-31T01:17:06.862Z,95.10
2022-10-31T01:19:52.407Z,95.10
2022-10-31T01:22:38.085Z,95.30
2022-10-31T01:25:23.508Z,95.40
2022-10-31T01:28:11.732Z,95.50
2022-10-31T01:31:08.796Z,95.60
2022-10-31T01:33:57.993Z,95.70
2022-10-31T01:36:45.960Z,95.60
2022-10-31T01:39:31.483Z,95.70
2022-10-31T01:42:20.389Z,95.80
2022-10-31T01:45:09.464Z,95.80
2022-10-31T01:47:57.876Z,95.80
2022-10-31T01:50:46.544Z,95.90
2022-10-31T01:53:33.111Z,95.90
2022-10-31T01:56:19.280Z,95.90
2022-10-31T01:59:08.191Z,95.90
2022-10-31T02:01:55.266Z,95.90
2022-10-31T02:04:41.075Z,95.80
2022-10-31T02:07:56.743Z,95.70
2022-10-31T02:10:46.896Z,95.70
2022-10-31T02:13:34.610Z,95.60
2022-10-31T02:16:20.069Z,95.60
2022-10-31T02:19:09.413Z,95.70
2022-10-31T02:22:14.250Z,95.80
2022-10-31T02:25:11.074Z,95.90
2022-10-31T02:28:26.623Z,96.10
2022-10-31T02:31:46.547Z,96.30
2022-10-31T02:34:45.042Z,96.20
2022-10-31T02:37:44.658Z,96.20
2022-10-31T02:40:40.824Z,96.20
2022-10-31T02:44:16.616Z,96.30
2022-10-31T02:47:10.982Z,96.60
2022-10-31T02:49:58.785Z,96.60
2022-10-31T02:52:44.417Z,96.70
2022-10-31T02:55:29.684Z,97.00
2022-10-31T02:58:23.117Z,96.70
2022-10-31T03:01:21.165Z,96.70
2022-10-31T03:04:28.385Z,96.70
2022-10-31T03:07:42.749Z,96.60
2022-10-31T03:10:28.026Z,96.60
2022-10-31T03:13:45.747Z,96.60
2022-10-31T03:16:46.793Z,96.60
2022-10-31T03:19:46.737Z,96.60
2022-10-31T03:22:34.121Z,96.60
2022-10-31T03:25:19.696Z,96.70
2022-10-31T03:28:06.857Z,96.70
2022-10-31T03:30:53.068Z,96.80
2022-10-31T03:33:41.368Z,96.90
2022-10-31T03:36:28.076Z,96.90
2022-10-31T03:39:16.714Z,97.00
2022-10-31T03:42:23.142Z,97.10
2022-10-31T03:45:19.534Z,97.30
2022-10-31T03:48:05.328Z,97.30
2022-10-31T03:51:20.739Z,97.40
2022-10-31T03:54:34.846Z,97.50
2022-10-31T03:57:44.363Z,97.50
2022-10-31T04:00:33.548Z,97.40
2022-10-31T04:03:34.735Z,97.50
2022-10-31T04:06:22.463Z,97.70
2022-10-31T04:09:10.402Z,97.90
2022-10-31T04:11:59.224Z,98.00
2022-10-31T04:14:56.858Z,97.90
2022-10-31T04:17:46.074Z,97.70
2022-10-31T04:20:37.879Z,97.60
2022-10-31T04:23:26.715Z,97.60
2022-10-31T04:26:13.285Z,97.70
2022-10-31T04:28:58.928Z,97.70
2022-10-31T04:31:46.295Z,97.70
2022-10-31T04:34:31.496Z,97.60
2022-10-31T04:37:17.010Z,97.60
2022-10-31T04:40:02.382Z,97.50
2022-10-31T04:43:17.426Z,97.60
2022-10-31T04:46:12.881Z,97.50
2022-10-31T04:48:58.525Z,97.40
2022-10-31T04:51:43.895Z,97.20
2022-10-31T04:54:29.277Z,97.20
2022-10-31T04:57:51.574Z,97.00
2022-10-31T05:00:43.795Z,97.20
2022-10-31T05:03:29.128Z,97.10
2022-10-31T05:06:14.856Z,97.10
2022-10-31T05:09:01.361Z,97.10
2022-10-31T05:11:47.374Z,97.10
2022-10-31T05:15:06.538Z,97.00
2022-10-31T05:18:10.583Z,97.00
2022-10-31T05:21:14.846Z,97.00
2022-10-31T05:24:11.754Z,97.10
2022-10-31T05:26:58.614Z,97.00
2022-10-31T05:29:44.222Z,97.00
2022-10-31T05:32:30.797Z,96.90
2022-10-31T05:35:45.239Z,97.00
2022-10-31T05:38:51.453Z,97.30
2022-10-31T05:41:43.866Z,96.90
2022-10-31T05:44:35.186Z,96.90
2022-10-31T05:47:43.674Z,97.30
2022-10-31T05:50:57.505Z,97.00
2022-10-31T05:53:44.165Z,97.00
2022-10-31T05:56:31.574Z,96.90
2022-10-31T05:59:17.087Z,96.80
2022-10-31T06:02:03.618Z,96.90
2022-10-31T06:05:08.497Z,96.80
2022-10-31T06:07:53.708Z,96.90
2022-10-31T06:10:39.452Z,96.90
2022-10-31T06:13:25.104Z,96.80
2022-10-31T06:16:19.672Z,96.90
2022-10-31T06:19:05.148Z,96.90
2022-10-31T06:21:50.460Z,97.10
2022-10-31T06:24:35.967Z,97.10
2022-10-31T06:27:41.557Z,97.20
2022-10-31T06:30:33.147Z,97.30
2022-10-31T06:33:18.692Z,97.30
2022-10-31T06:36:14.171Z,97.30
2022-10-31T06:38:59.587Z,97.30
2022-10-31T06:41:49.014Z,97.30
2022-10-31T06:44:35.906Z,97.30
2022-10-31T06:47:50.972Z,97.70
2022-10-31T06:50:48.091Z,97.90
2022-10-31T06:53:33.532Z,97.50
2022-10-31T06:56:19.727Z,97.70
2022-10-31T06:59:09.796Z,97.90
2022-10-31T07:02:18.719Z,97.80
2022-10-31T07:05:04.355Z,97.80
2022-10-31T07:07:54.643Z,97.90
2022-10-31T07:10:42.779Z,98.10
2022-10-31T07:13:28.958Z,98.20
2022-10-31T07:16:24.486Z,98.30
2022-10-31T07:19:10.054Z,98.40
2022-10-31T07:21:58.817Z,98.40
2022-10-31T07:24:47.247Z,98.50
2022-10-31T07:28:06.958Z,98.50
2022-10-31T07:30:57.362Z,98.40
2022-10-31T07:33:42.811Z,98.40
2022-10-31T07:36:54.454Z,98.50
2022-10-31T07:39:39.657Z,98.60
2022-10-31T07:42:25.836Z,98.60
2022-10-31T07:45:14.188Z,98.50
2022-10-31T07:48:28.730Z,98.70
2022-10-31T07:51:32.868Z,98.60
2022-10-31T07:54:37.540Z,98.20
2022-10-31T07:57:25.123Z,98.70
2022-10-31T08:00:11.437Z,98.50
2022-10-31T08:03:07.881Z,98.60
2022-10-31T08:06:12.399Z,98.80
2022-10-31T08:09:39.461Z,98.70
2022-10-31T08:12:37.116Z,98.50
2022-10-31T08:15:26.535Z,98.50
2022-10-31T08:18:15.765Z,98.50
2022-10-31T08:21:01.791Z,98.60
2022-10-31T08:23:47.349Z,98.70
2022-10-31T08:26:33.655Z,98.60
2022-10-31T08:29:18.929Z,98.70
2022-10-31T08:32:05.843Z,98.60
2022-10-31T08:35:10.401Z,98.60
2022-10-31T08:38:15.241Z,98.60
2022-10-31T08:41:01.258Z,98.50
2022-10-31T08:43:47.518Z,98.70
2022-10-31T08:46:35.477Z,98.80
2022-10-31T08:49:21.076Z,98.70
2022-10-31T08:52:13.483Z,98.90
2022-10-31T08:55:04.919Z,99.00
2022-10-31T08:58:20.853Z,99.10
2022-10-31T09:01:10.882Z,99.20
2022-10-31T09:03:59.308Z,99.40
2022-10-31T09:07:07.976Z,99.40
2022-10-31T09:09:50.925Z,99.70
2022-10-31T09:12:37.979Z,99.60
2022-10-31T09:15:44.871Z,99.70
2022-10-31T09:18:37.857Z,99.90
2022-10-31T09:21:23.463Z,99.90
2022-10-31T09:24:11.428Z,99.80
2022-10-31T09:26:56.682Z,99.70
2022-10-31T09:29:46.251Z,99.40
2022-10-31T09:32:32.287Z,99.30
2022-10-31T09:35:19.341Z,99.20
2022-10-31T09:38:11.161Z,99.20
2022-10-31T09:41:29.463Z,99.60
2022-10-31T09:44:45.238Z,99.60
2022-10-31T09:47:55.472Z,99.60
2022-10-31T09:51:13.835Z,99.50
2022-10-31T09:54:17.751Z,99.40
2022-10-31T09:57:04.787Z,99.20
2022-10-31T09:59:51.153Z,98.90
2022-10-31T10:03:01.638Z,98.80
2022-10-31T10:06:13.704Z,98.80
2022-10-31T10:09:25.816Z,98.50
2022-10-31T10:13:08.168Z,98.70
2022-10-31T10:16:13.177Z,98.30
2022-10-31T10:19:23.320Z,98.20
2022-10-31T10:22:38.273Z,98.20
2022-10-31T10:25:41.208Z,97.80
2022-10-31T10:28:31.014Z,97.60
2022-10-31T10:31:20.599Z,97.60
2022-10-31T10:34:27.739Z,97.30
2022-10-31T10:37:32.700Z,97.30
2022-10-31T10:40:19.636Z,97.00
2022-10-31T10:43:22.671Z,97.40
2022-10-31T10:46:44.269Z,97.60
2022-10-31T10:49:50.785Z,97.80
2022-10-31T10:52:49.458Z,97.90
2022-10-31T10:56:14.797Z,96.90
2022-10-31T10:59:00.053Z,95.80
2022-10-31T11:01:46.322Z,95.30
2022-10-31T11:04:36.838Z,95.10
2022-10-31T11:07:23.034Z,95.30
2022-10-31T11:10:17.076Z,94.80
2022-10-31T11:13:10.078Z,94.60
2022-10-31T11:16:09.770Z,95.00
2022-10-31T11:19:08.232Z,94.50
2022-10-31T11:21:55.108Z,93.80
2022-10-31T11:24:42.353Z,93.90
2022-10-31T11:27:28.088Z,93.90
2022-10-31T11:30:15.088Z,93.30
2022-10-31T11:33:01.092Z,93.50
2022-10-31T11:35:48.421Z,93.30
2022-10-31T11:38:44.975Z,93.20
2022-10-31T11:41:33.670Z,92.90
2022-10-31T11:44:26.560Z,93.00
2022-10-31T11:47:16.847Z,93.10
2022-10-31T11:50:10.403Z,93.00
2022-10-31T11:55:41.686Z,93.20
2022-10-31T11:58:27.795Z,92.60
2022-10-31T12:01:42.426Z,92.80
2022-10-31T12:04:36.010Z,93.00
2022-10-31T12:07:24.318Z,93.30
2022-10-31T12:10:13.849Z,93.20
2022-10-31T12:13:28.022Z,92.60
2022-10-31T12:16:52.167Z,92.40
2022-10-31T12:20:01.455Z,92.50
2022-10-31T12:23:15.892Z,92.20
2022-10-31T12:26:25.326Z,92.50
2022-10-31T12:29:31.350Z,92.20
2022-10-31T12:32:26.147Z,91.00
2022-10-31T12:35:23.646Z,89.90
2022-10-31T12:38:54.226Z,88.60
2022-10-31T12:42:04.474Z,88.70
2022-10-31T12:44:58.603Z,88.00
2022-10-31T12:48:19.899Z,85.80
2022-10-31T12:51:16.416Z,82.90
2022-10-31T12:54:48.085Z,82.40
2022-10-31T12:57:49.423Z,81.30
2022-10-31T13:00:37.419Z,81.10
2022-10-31T13:03:58.104Z,81.20
2022-10-31T13:06:54.883Z,80.20
2022-10-31T13:09:57.683Z,81.20
2022-10-31T13:12:44.071Z,81.30
2022-10-31T13:15:34.179Z,81.20
2022-10-31T13:18:36.972Z,81.00
2022-10-31T13:21:26.772Z,80.60
2022-10-31T13:24:19.362Z,80.30
2022-10-31T13:27:27.758Z,80.70
2022-10-31T13:30:15.586Z,80.80
2022-10-31T13:33:17.555Z,81.10
2022-10-31T13:36:14.720Z,81.60
2022-10-31T13:39:37.828Z,81.80
2022-10-31T13:42:33.238Z,81.70
2022-10-31T13:45:24.419Z,82.50
2022-10-31T13:48:16.066Z,82.70
2022-10-31T13:51:08.520Z,83.00
2022-10-31T13:53:56.554Z,83.50
2022-10-31T13:56:41.868Z,83.50
2022-10-31T13:59:30.011Z,83.60
2022-10-31T14:02:26.053Z,84.10
2022-10-31T14:05:33.131Z,84.30
2022-10-31T14:08:24.398Z,84.60
2022-10-31T14:11:32.981Z,84.40
2022-10-31T14:14:27.781Z,84.30
2022-10-31T14:17:34.031Z,84.40
2022-10-31T14:20:19.417Z,84.70
2022-10-31T14:23:38.816Z,84.30
2022-10-31T14:26:26.565Z,84.50
2022-10-31T14:29:15.175Z,84.80
2022-10-31T14:32:26.807Z,84.90
2022-10-31T14:35:21.604Z,85.00
2022-10-31T14:38:25.019Z,85.90
2022-10-31T14:41:33.171Z,85.00
2022-10-31T14:44:49.202Z,85.10
2022-10-31T14:47:46.510Z,85.60
2022-10-31T14:50:51.265Z,85.80
2022-10-31T14:54:04.735Z,85.90
2022-10-31T14:56:57.698Z,86.30
2022-10-31T14:59:49.706Z,86.50
2022-10-31T15:02:37.815Z,86.60
2022-10-31T15:05:24.201Z,86.70
2022-10-31T15:08:27.998Z,86.80
2022-10-31T15:11:28.952Z,86.80
2022-10-31T15:14:27.455Z,87.10
2022-10-31T15:17:16.038Z,87.30
2022-10-31T15:20:01.313Z,87.30
2022-10-31T15:22:47.531Z,87.60
2022-10-31T15:25:38.530Z,88.80
2022-10-31T15:28:25.942Z,88.30
2022-10-31T15:31:17.016Z,88.60
2022-10-31T15:34:24.547Z,88.90
2022-10-31T15:37:13.046Z,89.20
2022-10-31T15:40:13.028Z,89.50
2022-10-31T15:43:05.272Z,89.90
2022-10-31T15:45:51.096Z,90.00
2022-10-31T15:48:37.878Z,90.10
2022-10-31T15:51:33.301Z,90.20
2022-10-31T15:54:18.627Z,90.20
2022-10-31T15:57:10.733Z,90.30
2022-10-31T15:59:56.891Z,90.40
2022-10-31T16:02:42.958Z,90.40
2022-10-31T16:05:39.896Z,90.40
2022-10-31T16:08:31.390Z,90.50
2022-10-31T16:11:30.418Z,90.60
2022-10-31T16:14:25.860Z,90.70
2022-10-31T16:17:19.615Z,90.70
2022-10-31T16:20:07.346Z,90.70
2022-10-31T16:22:54.691Z,90.70
2022-10-31T16:25:40.756Z,90.80
2022-10-31T16:28:35.621Z,90.90
2022-10-31T16:31:38.704Z,91.00
2022-10-31T16:34:26.828Z,91.10
2022-10-31T16:37:12.853Z,91.50
2022-10-31T16:39:58.209Z,91.20
2022-10-31T16:42:45.157Z,91.30
2022-10-31T16:45:34.222Z,91.40
2022-10-31T16:48:22.315Z,91.40
2022-10-31T16:51:08.801Z,91.60
2022-10-31T16:53:54.393Z,91.60
2022-10-31T16:56:40.086Z,91.50
2022-10-31T16:59:28.684Z,91.50
2022-10-31T17:02:16.791Z,91.40
2022-10-31T17:05:02.009Z,91.70
2022-10-31T17:07:48.184Z,91.30
2022-10-31T17:10:36.755Z,91.30
2022-10-31T17:13:25.157Z,91.30
2022-10-31T17:16:13.242Z,91.40
2022-10-31T17:18:58.864Z,91.50
2022-10-31T17:21:44.309Z,91.60
2022-10-31T17:24:29.764Z,91.70
2022-10-31T17:27:15.319Z,91.70
2022-10-31T17:30:00.810Z,91.90
2022-10-31T17:32:49.098Z,91.80
2022-10-31T17:35:34.346Z,91.90
2022-10-31T17:38:20.084Z,92.00
2022-10-31T17:41:10.033Z,92.10
2022-10-31T17:44:00.479Z,92.10
2022-10-31T17:46:45.677Z,92.20
2022-10-31T17:49:31.258Z,92.30
2022-10-31T17:52:16.709Z,92.40
2022-10-31T17:55:02.451Z,92.50
2022-10-31T17:57:47.824Z,92.60
2022-10-31T18:00:33.810Z,92.80
2022-10-31T18:03:19.403Z,92.90
2022-10-31T18:06:05.110Z,93.00
2022-10-31T18:08:50.698Z,93.00
2022-10-31T18:11:36.224Z,93.20
2022-10-31T18:14:21.757Z,93.30
2022-10-31T18:17:10.934Z,93.30
2022-10-31T18:19:56.560Z,93.60
2022-10-31T18:22:42.107Z,93.90
2022-10-31T18:25:27.477Z,93.60
2022-10-31T18:28:18.017Z,93.70
2022-10-31T18:31:03.960Z,93.80
2022-10-31T18:36:36.942Z,93.90
2022-10-31T18:39:22.592Z,94.50
2022-10-31T18:42:08.044Z,94.40
2022-10-31T18:44:53.383Z,94.50
2022-10-31T18:47:38.876Z,94.40
2022-10-31T18:50:24.814Z,94.50
2022-10-31T18:53:10.363Z,94.50
2022-10-31T18:55:55.668Z,94.50
2022-10-31T18:58:47.051Z,94.50
2022-10-31T19:01:32.709Z,94.40
2022-10-31T19:04:18.518Z,94.30
2022-10-31T19:07:03.950Z,94.30
2022-10-31T19:09:49.583Z,94.30
2022-10-31T19:12:38.092Z,94.30
2022-10-31T19:15:23.817Z,94.40
2022-10-31T19:18:09.185Z,94.70
2022-10-31T19:20:55.028Z,94.50
2022-10-31T19:23:41.133Z,94.50
2022-10-31T19:26:27.420Z,94.50
2022-10-31T19:29:13.207Z,94.60
2022-10-31T19:32:03.314Z,94.60
2022-10-31T19:34:48.922Z,94.70
2022-10-31T19:37:39.597Z,94.70
2022-10-31T19:40:27.975Z,94.70
2022-10-31T19:43:13.622Z,94.70
2022-10-31T19:46:01.067Z,94.70
2022-10-31T19:48:46.972Z,94.60
2022-10-31T19:51:32.905Z,94.70
2022-10-31T19:54:18.587Z,94.60
2022-10-31T19:57:06.756Z,94.70
2022-10-31T19:59:52.145Z,94.70
2022-10-31T20:02:37.720Z,94.70
2022-10-31T20:05:23.233Z,94.60
2022-10-31T20:08:15.810Z,94.50
2022-10-31T20:11:02.603Z,94.50
2022-10-31T20:13:47.670Z,94.60
2022-10-31T20:16:33.648Z,94.50
2022-10-31T20:19:25.608Z,94.50
2022-10-31T20:22:11.404Z,94.50
2022-10-31T20:24:56.998Z,94.90
2022-10-31T20:27:42.482Z,94.60
2022-10-31T20:30:29.423Z,94.60
2022-10-31T20:33:15.074Z,94.70
2022-10-31T20:36:04.709Z,94.70
2022-10-31T20:38:52.283Z,94.70
2022-10-31T20:41:39.318Z,94.70
2022-10-31T20:44:27.763Z,94.70
2022-10-31T20:47:13.892Z,94.50
2022-10-31T20:49:59.207Z,94.50
2022-10-31T20:52:44.671Z,94.50
2022-10-31T20:55:32.930Z,94.50
2022-10-31T20:58:24.352Z,94.40
2022-10-31T21:01:21.636Z,94.30
2022-10-31T21:04:08.767Z,94.30
2022-10-31T21:06:54.268Z,94.20
2022-10-31T21:09:39.670Z,94.20
2022-10-31T21:12:25.343Z,94.20
2022-10-31T21:15:13.442Z,94.20
2022-10-31T21:18:02.199Z,94.20
2022-10-31T21:20:47.552Z,94.20
2022-10-31T21:23:33.145Z,94.20
2022-10-31T21:26:21.363Z,94.20
2022-10-31T21:29:07.392Z,94.30
2022-10-31T21:31:55.761Z,94.20
2022-10-31T21:34:41.288Z,94.10
2022-10-31T21:37:26.550Z,94.10
2022-10-31T21:40:12.710Z,94.20
2022-10-31T21:42:59.250Z,94.20
2022-10-31T21:45:44.899Z,94.30
2022-10-31T21:48:30.985Z,94.20
2022-10-31T21:51:21.321Z,94.20
2022-10-31T21:54:25.422Z,94.20
2022-10-31T21:57:10.768Z,94.20
2022-10-31T21:59:56.276Z,94.10
2022-10-31T22:02:41.818Z,94.00
2022-10-31T22:05:27.067Z,94.00
2022-10-31T22:08:12.654Z,93.80
2022-10-31T22:11:03.737Z,93.90
2022-10-31T22:13:56.574Z,94.00
2022-10-31T22:16:42.444Z,93.80
2022-10-31T22:19:28.118Z,93.50
2022-10-31T22:22:13.237Z,93.30
2022-10-31T22:24:58.706Z,93.10
2022-10-31T22:27:44.306Z,93.00
2022-10-31T22:30:29.733Z,92.90
2022-10-31T22:33:15.150Z,92.80
2022-10-31T22:36:10.092Z,92.80
2022-10-31T22:38:55.952Z,92.80
2022-10-31T22:41:42.090Z,92.70
2022-10-31T22:44:27.619Z,92.70
2022-10-31T22:47:13.427Z,92.70
2022-10-31T22:50:01.390Z,92.80
2022-10-31T22:52:46.748Z,92.70
2022-10-31T22:55:34.877Z,92.70
2022-10-31T22:58:20.325Z,92.70
2022-10-31T23:01:14.921Z,92.70
2022-10-31T23:04:01.166Z,92.70
2022-10-31T23:06:46.420Z,92.70
2022-10-31T23:09:37.999Z,92.60
2022-10-31T23:12:41.754Z,92.60
2022-10-31T23:15:27.342Z,92.60
2022-10-31T23:18:23.922Z,92.70
2022-10-31T23:21:32.623Z,92.80
2022-10-31T23:24:18.263Z,92.80
2022-10-31T23:27:18.450Z,92.90
2022-10-31T23:30:04.319Z,93.10
2022-10-31T23:32:49.749Z,93.00
2022-10-31T23:35:44.896Z,93.10
2022-10-31T23:38:30.176Z,93.20
2022-10-31T23:41:15.982Z,93.20
2022-10-31T23:44:01.147Z,93.20
2022-10-31T23:46:46.801Z,93.30
2022-10-31T23:49:32.424Z,93.40
2022-10-31T23:52:18.293Z,93.40
2022-10-31T23:55:04.781Z,93.40
2022-10-31T23:57:49.992Z,93.40
